LGW weather

London Gatwick Airport
London, England, United Kingdom

Public forecast

Using degrees Celsius for public forecast. Weather courtesy of forecast.io.

METAR (pilot weather report)

Retrieved 2017/04/27 00:50 UTC (19 minutes ago):

EGKK 270050Z 00000KT CAVOK 01/M01 Q1020

TAF (pilot weather forecast)

Forecast is more than 12 hours old.

Retrieved 2017/04/26 00:19 UTC (1 day ago):

TAF EGKK 262301Z 2700/2806 28005KT 9999 FEW045 PROB30 2703/2707 3000 MIFG PROB30 TEMPO 2718/2724 9000 -SHRA PROB30 TEMPO 2800/2803 7000 -SHRA BKN012